sensor_id;sensor_type;location;lat;lon;timestamp;temperature;humidity
31783;DHT22;18351;47.560;9.708;2023-03-01T00:01:25;1.30;99.90
31783;DHT22;18351;47.560;9.708;2023-03-01T00:03:51;1.30;99.90
31783;DHT22;18351;47.560;9.708;2023-03-01T00:06:18;1.30;99.90
31783;DHT22;18351;47.560;9.708;2023-03-01T00:08:44;1.40;99.90
31783;DHT22;18351;47.560;9.708;2023-03-01T00:11:18;1.40;99.90
31783;DHT22;18351;47.560;9.708;2023-03-01T00:13:45;1.40;99.90
31783;DHT22;18351;47.560;9.708;2023-03-01T00:16:14;1.40;99.90
31783;DHT22;18351;47.560;9.708;2023-03-01T00:18:40;1.30;99.90
31783;DHT22;18351;47.560;9.708;2023-03-01T00:21:06;1.30;99.90
31783;DHT22;18351;47.560;9.708;2023-03-01T00:23:34;1.30;99.90
31783;DHT22;18351;47.560;9.708;2023-03-01T00:25:59;1.30;99.90
31783;DHT22;18351;47.560;9.708;2023-03-01T00:28:25;1.40;99.90
31783;DHT22;18351;47.560;9.708;2023-03-01T00:30:51;1.40;99.90
31783;DHT22;18351;47.560;9.708;2023-03-01T00:33:16;1.40;99.90
31783;DHT22;18351;47.560;9.708;2023-03-01T00:35:42;1.40;99.90
31783;DHT22;18351;47.560;9.708;2023-03-01T00:38:08;1.40;99.90
31783;DHT22;18351;47.560;9.708;2023-03-01T00:40:35;1.40;99.90
31783;DHT22;18351;47.560;9.708;2023-03-01T00:43:01;1.40;99.90
31783;DHT22;18351;47.560;9.708;2023-03-01T00:45:27;1.40;99.90
31783;DHT22;18351;47.560;9.708;2023-03-01T00:47:53;1.40;99.90
31783;DHT22;18351;47.560;9.708;2023-03-01T00:50:19;1.50;99.90
31783;DHT22;18351;47.560;9.708;2023-03-01T00:52:45;1.50;99.90
31783;DHT22;18351;47.560;9.708;2023-03-01T00:55:11;1.50;99.90
31783;DHT22;18351;47.560;9.708;2023-03-01T00:57:37;1.60;99.90
31783;DHT22;18351;47.560;9.708;2023-03-01T01:00:05;1.60;99.90
31783;DHT22;18351;47.560;9.708;2023-03-01T01:02:33;1.60;99.90
31783;DHT22;18351;47.560;9.708;2023-03-01T01:04:59;1.60;99.90
31783;DHT22;18351;47.560;9.708;2023-03-01T01:07:24;1.50;99.90
31783;DHT22;18351;47.560;9.708;2023-03-01T01:09:50;1.50;99.90
31783;DHT22;18351;47.560;9.708;2023-03-01T01:12:16;1.50;99.90
31783;DHT22;18351;47.560;9.708;2023-03-01T01:14:41;1.50;99.90
31783;DHT22;18351;47.560;9.708;2023-03-01T01:17:07;1.50;99.90
31783;DHT22;18351;47.560;9.708;2023-03-01T01:19:32;1.40;99.90
31783;DHT22;18351;47.560;9.708;2023-03-01T01:21:58;1.40;99.90
31783;DHT22;18351;47.560;9.708;2023-03-01T01:24:24;1.30;99.90
31783;DHT22;18351;47.560;9.708;2023-03-01T01:26:49;1.30;99.90
31783;DHT22;18351;47.560;9.708;2023-03-01T01:29:15;1.30;99.90
31783;DHT22;18351;47.560;9.708;2023-03-01T01:31:42;1.30;99.90
31783;DHT22;18351;47.560;9.708;2023-03-01T01:34:10;1.30;99.90
31783;DHT22;18351;47.560;9.708;2023-03-01T01:36:38;1.40;99.90
31783;DHT22;18351;47.560;9.708;2023-03-01T01:39:04;1.40;99.90
31783;DHT22;18351;47.560;9.708;2023-03-01T01:41:30;1.30;99.90
31783;DHT22;18351;47.560;9.708;2023-03-01T01:44:24;1.40;99.90
31783;DHT22;18351;47.560;9.708;2023-03-01T01:46:57;1.40;99.90
31783;DHT22;18351;47.560;9.708;2023-03-01T01:49:33;1.40;99.90
31783;DHT22;18351;47.560;9.708;2023-03-01T01:52:18;1.30;99.90
31783;DHT22;18351;47.560;9.708;2023-03-01T01:57:23;1.30;99.90
31783;DHT22;18351;47.560;9.708;2023-03-01T01:59:51;1.30;99.90
31783;DHT22;18351;47.560;9.708;2023-03-01T02:02:18;1.30;99.90
31783;DHT22;18351;47.560;9.708;2023-03-01T02:04:44;1.30;99.90
31783;DHT22;18351;47.560;9.708;2023-03-01T02:07:30;1.30;99.90
31783;DHT22;18351;47.560;9.708;2023-03-01T02:09:56;1.30;99.90
31783;DHT22;18351;47.560;9.708;2023-03-01T02:12:24;1.30;99.90
31783;DHT22;18351;47.560;9.708;2023-03-01T02:14:49;1.40;99.90
31783;DHT22;18351;47.560;9.708;2023-03-01T02:17:16;1.40;99.90
31783;DHT22;18351;47.560;9.708;2023-03-01T02:22:37;1.50;99.90
31783;DHT22;18351;47.560;9.708;2023-03-01T02:25:20;1.50;99.90
31783;DHT22;18351;47.560;9.708;2023-03-01T02:30:21;1.50;99.90
31783;DHT22;18351;47.560;9.708;2023-03-01T02:32:48;1.50;99.90
31783;DHT22;18351;47.560;9.708;2023-03-01T02:35:16;1.50;99.90
31783;DHT22;18351;47.560;9.708;2023-03-01T02:37:43;1.50;99.90
31783;DHT22;18351;47.560;9.708;2023-03-01T02:40:13;1.50;99.90
31783;DHT22;18351;47.560;9.708;2023-03-01T02:42:53;1.50;99.90
31783;DHT22;18351;47.560;9.708;2023-03-01T02:45:20;1.50;99.90
31783;DHT22;18351;47.560;9.708;2023-03-01T02:47:46;1.50;99.90
31783;DHT22;18351;47.560;9.708;2023-03-01T02:50:45;1.50;99.90
31783;DHT22;18351;47.560;9.708;2023-03-01T02:53:19;1.50;99.90
31783;DHT22;18351;47.560;9.708;2023-03-01T02:55:48;1.50;99.90
31783;DHT22;18351;47.560;9.708;2023-03-01T02:58:14;1.50;99.90
31783;DHT22;18351;47.560;9.708;2023-03-01T03:00:42;1.50;99.90
31783;DHT22;18351;47.560;9.708;2023-03-01T03:03:21;1.40;99.90
31783;DHT22;18351;47.560;9.708;2023-03-01T03:05:47;1.40;99.90
31783;DHT22;18351;47.560;9.708;2023-03-01T03:08:14;1.40;99.90
31783;DHT22;18351;47.560;9.708;2023-03-01T03:10:41;1.40;99.90
31783;DHT22;18351;47.560;9.708;2023-03-01T03:13:13;1.50;99.90
31783;DHT22;18351;47.560;9.708;2023-03-01T03:15:40;1.40;99.90
31783;DHT22;18351;47.560;9.708;2023-03-01T03:18:09;1.40;99.90
31783;DHT22;18351;47.560;9.708;2023-03-01T03:20:36;1.40;99.90
31783;DHT22;18351;47.560;9.708;2023-03-01T03:23:01;1.30;99.90
31783;DHT22;18351;47.560;9.708;2023-03-01T03:25:28;1.30;99.90
31783;DHT22;18351;47.560;9.708;2023-03-01T03:27:54;1.40;99.90
31783;DHT22;18351;47.560;9.708;2023-03-01T03:30:23;1.40;99.90
31783;DHT22;18351;47.560;9.708;2023-03-01T03:32:49;1.40;99.90
31783;DHT22;18351;47.560;9.708;2023-03-01T03:35:20;1.30;99.90
31783;DHT22;18351;47.560;9.708;2023-03-01T03:37:46;1.30;99.90
31783;DHT22;18351;47.560;9.708;2023-03-01T03:40:39;1.40;99.90
31783;DHT22;18351;47.560;9.708;2023-03-01T03:43:10;1.30;99.90
31783;DHT22;18351;47.560;9.708;2023-03-01T03:45:36;1.30;99.90
31783;DHT22;18351;47.560;9.708;2023-03-01T03:48:03;1.30;99.90
31783;DHT22;18351;47.560;9.708;2023-03-01T03:50:30;1.30;99.90
31783;DHT22;18351;47.560;9.708;2023-03-01T03:52:56;1.20;99.90
31783;DHT22;18351;47.560;9.708;2023-03-01T03:55:22;1.30;99.90
31783;DHT22;18351;47.560;9.708;2023-03-01T03:57:48;1.20;99.90
31783;DHT22;18351;47.560;9.708;2023-03-01T04:00:21;1.30;99.90
31783;DHT22;18351;47.560;9.708;2023-03-01T04:02:50;1.30;99.90
31783;DHT22;18351;47.560;9.708;2023-03-01T04:05:18;1.30;99.90
31783;DHT22;18351;47.560;9.708;2023-03-01T04:07:44;1.30;99.90
31783;DHT22;18351;47.560;9.708;2023-03-01T04:10:16;1.30;99.90
31783;DHT22;18351;47.560;9.708;2023-03-01T04:12:42;1.40;99.90
31783;DHT22;18351;47.560;9.708;2023-03-01T04:15:10;1.30;99.90
31783;DHT22;18351;47.560;9.708;2023-03-01T04:17:43;1.30;99.90
31783;DHT22;18351;47.560;9.708;2023-03-01T04:20:15;1.20;99.90
31783;DHT22;18351;47.560;9.708;2023-03-01T04:22:43;1.30;99.90
31783;DHT22;18351;47.560;9.708;2023-03-01T04:25:12;1.30;99.90
31783;DHT22;18351;47.560;9.708;2023-03-01T04:27:40;1.30;99.90
31783;DHT22;18351;47.560;9.708;2023-03-01T04:30:06;1.40;99.90
31783;DHT22;18351;47.560;9.708;2023-03-01T04:32:32;1.40;99.90
31783;DHT22;18351;47.560;9.708;2023-03-01T04:34:58;1.40;99.90
31783;DHT22;18351;47.560;9.708;2023-03-01T04:37:24;1.40;99.90
31783;DHT22;18351;47.560;9.708;2023-03-01T04:39:50;1.30;99.90
31783;DHT22;18351;47.560;9.708;2023-03-01T04:42:16;1.30;99.90
31783;DHT22;18351;47.560;9.708;2023-03-01T04:44:42;1.30;99.90
31783;DHT22;18351;47.560;9.708;2023-03-01T04:47:08;1.30;99.90
31783;DHT22;18351;47.560;9.708;2023-03-01T04:49:34;1.30;99.90
31783;DHT22;18351;47.560;9.708;2023-03-01T04:52:00;1.30;99.90
31783;DHT22;18351;47.560;9.708;2023-03-01T04:54:31;1.30;99.90
31783;DHT22;18351;47.560;9.708;2023-03-01T04:56:57;1.40;99.90
31783;DHT22;18351;47.560;9.708;2023-03-01T04:59:22;1.40;99.90
31783;DHT22;18351;47.560;9.708;2023-03-01T05:01:54;1.40;99.90
31783;DHT22;18351;47.560;9.708;2023-03-01T05:04:25;1.40;99.90
31783;DHT22;18351;47.560;9.708;2023-03-01T05:06:51;1.50;99.90
31783;DHT22;18351;47.560;9.708;2023-03-01T05:09:18;1.60;99.90
31783;DHT22;18351;47.560;9.708;2023-03-01T05:11:44;1.60;99.90
31783;DHT22;18351;47.560;9.708;2023-03-01T05:14:10;1.60;99.90
31783;DHT22;18351;47.560;9.708;2023-03-01T05:16:36;1.60;99.90
31783;DHT22;18351;47.560;9.708;2023-03-01T05:19:03;1.60;99.90
31783;DHT22;18351;47.560;9.708;2023-03-01T05:21:41;1.50;99.90
31783;DHT22;18351;47.560;9.708;2023-03-01T05:24:25;1.50;99.90
31783;DHT22;18351;47.560;9.708;2023-03-01T05:26:52;1.50;99.90
31783;DHT22;18351;47.560;9.708;2023-03-01T05:29:22;1.40;99.90
31783;DHT22;18351;47.560;9.708;2023-03-01T05:32:00;1.30;99.90
31783;DHT22;18351;47.560;9.708;2023-03-01T05:34:35;1.30;99.90
31783;DHT22;18351;47.560;9.708;2023-03-01T05:37:02;1.30;99.90
31783;DHT22;18351;47.560;9.708;2023-03-01T05:39:29;1.30;99.90
31783;DHT22;18351;47.560;9.708;2023-03-01T05:41:56;1.30;99.90
31783;DHT22;18351;47.560;9.708;2023-03-01T05:44:23;1.30;99.90
31783;DHT22;18351;47.560;9.708;2023-03-01T05:46:49;1.30;99.90
31783;DHT22;18351;47.560;9.708;2023-03-01T05:49:15;1.30;99.90
31783;DHT22;18351;47.560;9.708;2023-03-01T05:51:42;1.30;99.90
31783;DHT22;18351;47.560;9.708;2023-03-01T05:54:09;1.30;99.90
31783;DHT22;18351;47.560;9.708;2023-03-01T05:56:35;1.40;99.90
31783;DHT22;18351;47.560;9.708;2023-03-01T05:59:02;1.40;99.90
31783;DHT22;18351;47.560;9.708;2023-03-01T06:01:28;1.40;99.90
31783;DHT22;18351;47.560;9.708;2023-03-01T06:03:55;1.30;99.90
31783;DHT22;18351;47.560;9.708;2023-03-01T06:06:21;1.40;99.90
31783;DHT22;18351;47.560;9.708;2023-03-01T06:08:46;1.40;99.90
31783;DHT22;18351;47.560;9.708;2023-03-01T06:11:12;1.40;99.90
31783;DHT22;18351;47.560;9.708;2023-03-01T06:13:38;1.40;99.90
31783;DHT22;18351;47.560;9.708;2023-03-01T06:16:06;1.30;99.90
31783;DHT22;18351;47.560;9.708;2023-03-01T06:18:32;1.40;99.90
31783;DHT22;18351;47.560;9.708;2023-03-01T06:20:58;1.40;99.90
31783;DHT22;18351;47.560;9.708;2023-03-01T06:23:24;1.30;99.90
31783;DHT22;18351;47.560;9.708;2023-03-01T06:25:49;1.40;99.90
31783;DHT22;18351;47.560;9.708;2023-03-01T06:28:15;1.40;99.90
31783;DHT22;18351;47.560;9.708;2023-03-01T06:30:41;1.40;99.90
31783;DHT22;18351;47.560;9.708;2023-03-01T06:33:06;1.40;99.90
31783;DHT22;18351;47.560;9.708;2023-03-01T06:35:32;1.50;99.90
31783;DHT22;18351;47.560;9.708;2023-03-01T06:38:01;1.50;99.90
31783;DHT22;18351;47.560;9.708;2023-03-01T06:40:28;1.50;99.90
31783;DHT22;18351;47.560;9.708;2023-03-01T06:42:54;1.40;99.90
31783;DHT22;18351;47.560;9.708;2023-03-01T06:45:20;1.50;99.90
31783;DHT22;18351;47.560;9.708;2023-03-01T06:47:46;1.50;99.90
31783;DHT22;18351;47.560;9.708;2023-03-01T06:50:13;1.60;99.90
31783;DHT22;18351;47.560;9.708;2023-03-01T06:52:38;1.50;99.90
31783;DHT22;18351;47.560;9.708;2023-03-01T06:55:04;1.50;99.90
31783;DHT22;18351;47.560;9.708;2023-03-01T06:57:30;1.50;99.90
31783;DHT22;18351;47.560;9.708;2023-03-01T06:59:56;1.60;99.90
31783;DHT22;18351;47.560;9.708;2023-03-01T07:02:22;1.60;99.90
31783;DHT22;18351;47.560;9.708;2023-03-01T07:04:49;1.70;99.90
31783;DHT22;18351;47.560;9.708;2023-03-01T07:07:15;1.80;99.90
31783;DHT22;18351;47.560;9.708;2023-03-01T07:09:41;1.90;99.90
31783;DHT22;18351;47.560;9.708;2023-03-01T07:12:06;2.00;99.90
31783;DHT22;18351;47.560;9.708;2023-03-01T07:14:33;2.00;99.90
31783;DHT22;18351;47.560;9.708;2023-03-01T07:16:59;2.10;99.90
31783;DHT22;18351;47.560;9.708;2023-03-01T07:19:24;2.20;99.90
31783;DHT22;18351;47.560;9.708;2023-03-01T07:21:50;2.20;99.90
31783;DHT22;18351;47.560;9.708;2023-03-01T07:24:15;2.20;99.90
31783;DHT22;18351;47.560;9.708;2023-03-01T07:26:41;2.30;99.90
31783;DHT22;18351;47.560;9.708;2023-03-01T07:29:09;2.40;99.90
31783;DHT22;18351;47.560;9.708;2023-03-01T07:31:35;2.30;99.90
31783;DHT22;18351;47.560;9.708;2023-03-01T07:34:01;2.30;99.90
31783;DHT22;18351;47.560;9.708;2023-03-01T07:36:26;2.30;99.90
31783;DHT22;18351;47.560;9.708;2023-03-01T07:38:52;2.30;99.90
31783;DHT22;18351;47.560;9.708;2023-03-01T07:41:18;2.20;99.90
31783;DHT22;18351;47.560;9.708;2023-03-01T07:43:43;2.20;99.90
31783;DHT22;18351;47.560;9.708;2023-03-01T07:46:09;2.10;99.90
31783;DHT22;18351;47.560;9.708;2023-03-01T07:48:35;2.10;99.90
31783;DHT22;18351;47.560;9.708;2023-03-01T07:51:01;2.20;99.90
31783;DHT22;18351;47.560;9.708;2023-03-01T07:53:28;2.10;99.90
31783;DHT22;18351;47.560;9.708;2023-03-01T07:56:04;2.10;99.90
31783;DHT22;18351;47.560;9.708;2023-03-01T07:58:29;2.10;99.90
31783;DHT22;18351;47.560;9.708;2023-03-01T08:00:55;2.00;99.90
31783;DHT22;18351;47.560;9.708;2023-03-01T08:03:21;2.00;99.90
31783;DHT22;18351;47.560;9.708;2023-03-01T08:05:46;2.00;99.90
31783;DHT22;18351;47.560;9.708;2023-03-01T08:08:12;2.00;99.90
31783;DHT22;18351;47.560;9.708;2023-03-01T08:10:37;2.20;99.90
31783;DHT22;18351;47.560;9.708;2023-03-01T08:13:03;2.20;99.90
31783;DHT22;18351;47.560;9.708;2023-03-01T08:15:28;2.20;99.90
31783;DHT22;18351;47.560;9.708;2023-03-01T08:17:54;2.20;99.90
31783;DHT22;18351;47.560;9.708;2023-03-01T08:20:19;2.10;99.90
31783;DHT22;18351;47.560;9.708;2023-03-01T08:22:45;2.10;99.90
31783;DHT22;18351;47.560;9.708;2023-03-01T08:25:10;2.10;99.90
31783;DHT22;18351;47.560;9.708;2023-03-01T08:27:36;2.10;99.90
31783;DHT22;18351;47.560;9.708;2023-03-01T08:30:02;2.10;99.90
31783;DHT22;18351;47.560;9.708;2023-03-01T08:32:27;2.10;99.90
31783;DHT22;18351;47.560;9.708;2023-03-01T08:34:53;2.10;99.90
31783;DHT22;18351;47.560;9.708;2023-03-01T08:37:18;2.10;99.90
31783;DHT22;18351;47.560;9.708;2023-03-01T08:39:44;2.20;99.90
31783;DHT22;18351;47.560;9.708;2023-03-01T08:42:09;2.20;99.90
31783;DHT22;18351;47.560;9.708;2023-03-01T08:44:35;2.20;99.90
31783;DHT22;18351;47.560;9.708;2023-03-01T08:47:01;2.20;99.90
31783;DHT22;18351;47.560;9.708;2023-03-01T08:49:27;2.30;99.90
31783;DHT22;18351;47.560;9.708;2023-03-01T08:51:53;2.30;99.90
31783;DHT22;18351;47.560;9.708;2023-03-01T08:54:21;2.30;99.90
31783;DHT22;18351;47.560;9.708;2023-03-01T08:56:47;2.30;99.90
31783;DHT22;18351;47.560;9.708;2023-03-01T08:59:14;2.40;99.90
31783;DHT22;18351;47.560;9.708;2023-03-01T09:01:41;2.40;99.90
31783;DHT22;18351;47.560;9.708;2023-03-01T09:04:09;2.20;99.90
31783;DHT22;18351;47.560;9.708;2023-03-01T09:06:35;2.30;99.90
31783;DHT22;18351;47.560;9.708;2023-03-01T09:09:01;2.30;99.90
31783;DHT22;18351;47.560;9.708;2023-03-01T09:11:28;2.40;99.90
31783;DHT22;18351;47.560;9.708;2023-03-01T09:13:53;2.60;99.90
31783;DHT22;18351;47.560;9.708;2023-03-01T09:16:21;2.60;99.90
31783;DHT22;18351;47.560;9.708;2023-03-01T09:18:53;2.70;99.90
31783;DHT22;18351;47.560;9.708;2023-03-01T09:21:21;2.90;99.90
31783;DHT22;18351;47.560;9.708;2023-03-01T09:23:48;2.70;99.90
31783;DHT22;18351;47.560;9.708;2023-03-01T09:26:17;2.80;99.90
31783;DHT22;18351;47.560;9.708;2023-03-01T09:28:45;2.80;99.90
31783;DHT22;18351;47.560;9.708;2023-03-01T09:31:12;2.80;99.90
31783;DHT22;18351;47.560;9.708;2023-03-01T09:33:39;2.90;99.90
31783;DHT22;18351;47.560;9.708;2023-03-01T09:36:12;2.90;99.90
31783;DHT22;18351;47.560;9.708;2023-03-01T09:38:37;2.80;99.90
31783;DHT22;18351;47.560;9.708;2023-03-01T09:46:47;3.00;99.90
31783;DHT22;18351;47.560;9.708;2023-03-01T09:49:19;2.90;99.90
31783;DHT22;18351;47.560;9.708;2023-03-01T09:51:54;2.80;99.90
31783;DHT22;18351;47.560;9.708;2023-03-01T09:54:20;2.70;99.90
31783;DHT22;18351;47.560;9.708;2023-03-01T09:56:56;2.90;99.90
31783;DHT22;18351;47.560;9.708;2023-03-01T09:59:26;2.90;99.90
31783;DHT22;18351;47.560;9.708;2023-03-01T10:04:51;3.00;99.90
31783;DHT22;18351;47.560;9.708;2023-03-01T10:09:49;3.00;99.90
31783;DHT22;18351;47.560;9.708;2023-03-01T10:12:22;3.10;99.90
31783;DHT22;18351;47.560;9.708;2023-03-01T10:15:18;3.20;99.90
31783;DHT22;18351;47.560;9.708;2023-03-01T10:20:24;3.30;99.90
31783;DHT22;18351;47.560;9.708;2023-03-01T10:22:51;3.20;99.90
31783;DHT22;18351;47.560;9.708;2023-03-01T10:25:31;3.30;99.90
31783;DHT22;18351;47.560;9.708;2023-03-01T10:28:07;3.40;99.90
31783;DHT22;18351;47.560;9.708;2023-03-01T10:30:38;3.40;99.90
31783;DHT22;18351;47.560;9.708;2023-03-01T10:35:40;3.40;99.90
31783;DHT22;18351;47.560;9.708;2023-03-01T10:38:11;3.30;99.90
31783;DHT22;18351;47.560;9.708;2023-03-01T10:40:55;3.40;99.90
31783;DHT22;18351;47.560;9.708;2023-03-01T10:43:27;3.40;99.90
31783;DHT22;18351;47.560;9.708;2023-03-01T10:45:56;3.40;99.90
31783;DHT22;18351;47.560;9.708;2023-03-01T10:48:24;3.30;99.90
31783;DHT22;18351;47.560;9.708;2023-03-01T10:51:14;3.50;99.90
31783;DHT22;18351;47.560;9.708;2023-03-01T10:53:47;3.60;99.90
31783;DHT22;18351;47.560;9.708;2023-03-01T10:56:14;3.70;99.90
31783;DHT22;18351;47.560;9.708;2023-03-01T10:59:00;3.80;99.90
31783;DHT22;18351;47.560;9.708;2023-03-01T11:01:27;3.80;99.90
31783;DHT22;18351;47.560;9.708;2023-03-01T11:06:34;3.90;99.90
31783;DHT22;18351;47.560;9.708;2023-03-01T11:09:20;3.90;99.90
31783;DHT22;18351;47.560;9.708;2023-03-01T11:11:46;3.70;99.90
31783;DHT22;18351;47.560;9.708;2023-03-01T11:14:20;3.80;99.90
31783;DHT22;18351;47.560;9.708;2023-03-01T11:17:05;3.80;99.90
31783;DHT22;18351;47.560;9.708;2023-03-01T11:19:31;3.80;99.90
31783;DHT22;18351;47.560;9.708;2023-03-01T11:22:03;4.00;99.90
31783;DHT22;18351;47.560;9.708;2023-03-01T11:24:40;4.00;99.90
31783;DHT22;18351;47.560;9.708;2023-03-01T11:27:21;4.00;99.90
31783;DHT22;18351;47.560;9.708;2023-03-01T11:30:09;3.90;99.90
31783;DHT22;18351;47.560;9.708;2023-03-01T11:32:45;3.80;99.90
31783;DHT22;18351;47.560;9.708;2023-03-01T11:35:16;3.80;99.90
31783;DHT22;18351;47.560;9.708;2023-03-01T11:40:27;3.60;99.90
31783;DHT22;18351;47.560;9.708;2023-03-01T11:48:54;3.80;99.90
31783;DHT22;18351;47.560;9.708;2023-03-01T11:57:04;3.90;99.90
31783;DHT22;18351;47.560;9.708;2023-03-01T11:59:48;3.90;99.90
31783;DHT22;18351;47.560;9.708;2023-03-01T12:08:10;3.90;99.90
31783;DHT22;18351;47.560;9.708;2023-03-01T12:19:07;3.90;99.90
31783;DHT22;18351;47.560;9.708;2023-03-01T12:22:13;4.00;99.90
31783;DHT22;18351;47.560;9.708;2023-03-01T12:38:58;4.20;99.90
31783;DHT22;18351;47.560;9.708;2023-03-01T12:47:11;4.10;99.90
31783;DHT22;18351;47.560;9.708;2023-03-01T12:49:48;4.20;99.90
31783;DHT22;18351;47.560;9.708;2023-03-01T12:52:20;4.30;99.90
31783;DHT22;18351;47.560;9.708;2023-03-01T12:54:49;4.30;99.90
31783;DHT22;18351;47.560;9.708;2023-03-01T13:00:37;4.10;99.90
31783;DHT22;18351;47.560;9.708;2023-03-01T13:03:22;4.20;99.90
31783;DHT22;18351;47.560;9.708;2023-03-01T13:06:21;4.20;99.90
31783;DHT22;18351;47.560;9.708;2023-03-01T13:09:11;4.20;99.90
31783;DHT22;18351;47.560;9.708;2023-03-01T13:11:43;4.20;99.90
31783;DHT22;18351;47.560;9.708;2023-03-01T13:14:44;4.30;99.90
31783;DHT22;18351;47.560;9.708;2023-03-01T13:17:31;4.40;99.90
31783;DHT22;18351;47.560;9.708;2023-03-01T13:19:58;4.20;99.90
31783;DHT22;18351;47.560;9.708;2023-03-01T13:22:30;4.10;99.90
31783;DHT22;18351;47.560;9.708;2023-03-01T13:25:15;4.00;99.90
31783;DHT22;18351;47.560;9.708;2023-03-01T13:27:42;4.00;99.90
31783;DHT22;18351;47.560;9.708;2023-03-01T13:38:38;4.10;99.90
31783;DHT22;18351;47.560;9.708;2023-03-01T13:41:09;4.20;99.90
31783;DHT22;18351;47.560;9.708;2023-03-01T13:43:37;4.30;99.90
31783;DHT22;18351;47.560;9.708;2023-03-01T13:46:29;4.40;99.90
31783;DHT22;18351;47.560;9.708;2023-03-01T13:48:56;4.50;99.90
31783;DHT22;18351;47.560;9.708;2023-03-01T13:51:25;4.50;99.90
31783;DHT22;18351;47.560;9.708;2023-03-01T13:53:52;4.50;99.90
31783;DHT22;18351;47.560;9.708;2023-03-01T13:56:27;4.40;99.90
31783;DHT22;18351;47.560;9.708;2023-03-01T13:58:59;4.50;99.90
31783;DHT22;18351;47.560;9.708;2023-03-01T14:01:30;4.40;99.90
31783;DHT22;18351;47.560;9.708;2023-03-01T14:03:57;4.60;99.90
31783;DHT22;18351;47.560;9.708;2023-03-01T14:06:25;4.60;99.90
31783;DHT22;18351;47.560;9.708;2023-03-01T14:09:02;4.60;99.90
31783;DHT22;18351;47.560;9.708;2023-03-01T14:20:20;4.60;99.90
31783;DHT22;18351;47.560;9.708;2023-03-01T14:22:49;4.60;99.90
31783;DHT22;18351;47.560;9.708;2023-03-01T14:27:59;4.50;99.90
31783;DHT22;18351;47.560;9.708;2023-03-01T14:30:30;4.50;99.90
31783;DHT22;18351;47.560;9.708;2023-03-01T14:33:05;4.50;99.90
31783;DHT22;18351;47.560;9.708;2023-03-01T14:35:34;4.40;99.90
31783;DHT22;18351;47.560;9.708;2023-03-01T14:38:00;4.50;99.90
31783;DHT22;18351;47.560;9.708;2023-03-01T14:40:32;4.40;99.90
31783;DHT22;18351;47.560;9.708;2023-03-01T14:43:01;4.20;99.90
31783;DHT22;18351;47.560;9.708;2023-03-01T14:45:29;4.20;99.90
31783;DHT22;18351;47.560;9.708;2023-03-01T14:47:59;4.10;99.90
31783;DHT22;18351;47.560;9.708;2023-03-01T14:50:33;4.10;99.90
31783;DHT22;18351;47.560;9.708;2023-03-01T14:53:01;4.00;99.90
31783;DHT22;18351;47.560;9.708;2023-03-01T14:55:37;4.00;99.90
31783;DHT22;18351;47.560;9.708;2023-03-01T14:58:05;4.00;99.90
31783;DHT22;18351;47.560;9.708;2023-03-01T15:00:49;3.90;99.90
31783;DHT22;18351;47.560;9.708;2023-03-01T15:03:19;3.90;99.90
31783;DHT22;18351;47.560;9.708;2023-03-01T15:05:45;3.80;99.90
31783;DHT22;18351;47.560;9.708;2023-03-01T15:08:21;3.70;99.90
31783;DHT22;18351;47.560;9.708;2023-03-01T15:11:17;3.70;99.90
31783;DHT22;18351;47.560;9.708;2023-03-01T15:13:44;3.70;99.90
31783;DHT22;18351;47.560;9.708;2023-03-01T15:16:15;3.80;99.90
31783;DHT22;18351;47.560;9.708;2023-03-01T15:18:50;3.70;99.90
31783;DHT22;18351;47.560;9.708;2023-03-01T15:21:22;3.70;99.90
31783;DHT22;18351;47.560;9.708;2023-03-01T15:26:42;3.70;99.90
31783;DHT22;18351;47.560;9.708;2023-03-01T15:29:18;3.60;99.90
31783;DHT22;18351;47.560;9.708;2023-03-01T15:32:04;3.60;99.90
31783;DHT22;18351;47.560;9.708;2023-03-01T15:34:32;3.60;99.90
31783;DHT22;18351;47.560;9.708;2023-03-01T15:37:00;3.60;99.90
31783;DHT22;18351;47.560;9.708;2023-03-01T15:39:42;3.50;99.90
31783;DHT22;18351;47.560;9.708;2023-03-01T15:47:48;3.50;99.90
31783;DHT22;18351;47.560;9.708;2023-03-01T15:50:24;3.40;99.90
31783;DHT22;18351;47.560;9.708;2023-03-01T15:52:51;3.40;99.90
31783;DHT22;18351;47.560;9.708;2023-03-01T15:55:25;3.40;99.90
31783;DHT22;18351;47.560;9.708;2023-03-01T15:58:04;3.40;99.90
31783;DHT22;18351;47.560;9.708;2023-03-01T16:00:32;3.30;99.90
31783;DHT22;18351;47.560;9.708;2023-03-01T16:02:58;3.30;99.90
31783;DHT22;18351;47.560;9.708;2023-03-01T16:05:25;3.30;99.90
31783;DHT22;18351;47.560;9.708;2023-03-01T16:07:51;3.20;99.90
31783;DHT22;18351;47.560;9.708;2023-03-01T16:10:17;3.20;99.90
31783;DHT22;18351;47.560;9.708;2023-03-01T16:12:43;3.20;99.90
31783;DHT22;18351;47.560;9.708;2023-03-01T16:15:18;3.20;99.90
31783;DHT22;18351;47.560;9.708;2023-03-01T16:17:45;3.20;99.90
31783;DHT22;18351;47.560;9.708;2023-03-01T16:20:11;3.20;99.90
31783;DHT22;18351;47.560;9.708;2023-03-01T16:22:36;3.20;99.90
31783;DHT22;18351;47.560;9.708;2023-03-01T16:25:02;3.20;99.90
31783;DHT22;18351;47.560;9.708;2023-03-01T16:27:28;3.10;99.90
31783;DHT22;18351;47.560;9.708;2023-03-01T16:29:54;3.10;99.90
31783;DHT22;18351;47.560;9.708;2023-03-01T16:32:19;3.00;99.90
31783;DHT22;18351;47.560;9.708;2023-03-01T16:34:45;3.00;99.90
31783;DHT22;18351;47.560;9.708;2023-03-01T16:37:12;3.00;99.90
31783;DHT22;18351;47.560;9.708;2023-03-01T16:39:38;3.00;99.90
31783;DHT22;18351;47.560;9.708;2023-03-01T16:42:04;3.00;99.90
31783;DHT22;18351;47.560;9.708;2023-03-01T16:44:29;3.00;99.90
31783;DHT22;18351;47.560;9.708;2023-03-01T16:46:55;3.00;99.90
31783;DHT22;18351;47.560;9.708;2023-03-01T16:49:21;3.00;99.90
31783;DHT22;18351;47.560;9.708;2023-03-01T16:51:46;2.90;99.90
31783;DHT22;18351;47.560;9.708;2023-03-01T16:54:12;2.90;99.90
31783;DHT22;18351;47.560;9.708;2023-03-01T16:56:38;2.90;99.90
31783;DHT22;18351;47.560;9.708;2023-03-01T16:59:05;2.90;99.90
31783;DHT22;18351;47.560;9.708;2023-03-01T17:01:31;2.90;99.90
31783;DHT22;18351;47.560;9.708;2023-03-01T17:04:03;2.80;99.90
31783;DHT22;18351;47.560;9.708;2023-03-01T17:06:29;2.80;99.90
31783;DHT22;18351;47.560;9.708;2023-03-01T17:08:56;2.80;99.90
31783;DHT22;18351;47.560;9.708;2023-03-01T17:11:21;2.90;99.90
31783;DHT22;18351;47.560;9.708;2023-03-01T17:13:47;2.80;99.90
31783;DHT22;18351;47.560;9.708;2023-03-01T17:16:15;2.80;99.90
31783;DHT22;18351;47.560;9.708;2023-03-01T17:18:41;2.80;99.90
31783;DHT22;18351;47.560;9.708;2023-03-01T17:21:08;2.70;99.90
31783;DHT22;18351;47.560;9.708;2023-03-01T17:23:35;2.80;99.90
31783;DHT22;18351;47.560;9.708;2023-03-01T17:26:01;2.70;99.90
31783;DHT22;18351;47.560;9.708;2023-03-01T17:28:29;2.70;99.90
31783;DHT22;18351;47.560;9.708;2023-03-01T17:30:58;2.80;99.90
31783;DHT22;18351;47.560;9.708;2023-03-01T17:33:24;2.80;99.90
31783;DHT22;18351;47.560;9.708;2023-03-01T17:35:50;2.80;99.90
31783;DHT22;18351;47.560;9.708;2023-03-01T17:38:16;2.80;99.90
31783;DHT22;18351;47.560;9.708;2023-03-01T17:40:43;2.80;99.90
31783;DHT22;18351;47.560;9.708;2023-03-01T17:43:13;2.80;99.90
31783;DHT22;18351;47.560;9.708;2023-03-01T17:45:39;2.80;99.90